createdAt,value
2023-01-28T00:00:51.852Z,7.88
2023-01-28T00:03:18.968Z,8.35
2023-01-28T00:05:45.856Z,7.18
2023-01-28T00:08:14.317Z,8.45
2023-01-28T00:10:43.070Z,7.03
2023-01-28T00:13:14.825Z,6.45
2023-01-28T00:18:08.573Z,5.35
2023-01-28T00:20:35.724Z,5.95
2023-01-28T00:23:02.828Z,5.70
2023-01-28T00:25:29.882Z,5.88
2023-01-28T00:27:56.737Z,5.93
2023-01-28T00:30:23.589Z,5.85
2023-01-28T00:32:50.463Z,6.45
2023-01-28T00:35:17.741Z,7.15
2023-01-28T00:37:47.044Z,6.25
2023-01-28T00:40:14.434Z,6.90
2023-01-28T00:42:41.417Z,6.82
2023-01-28T00:45:08.750Z,5.80
2023-01-28T00:47:35.870Z,6.43
2023-01-28T00:50:03.438Z,6.72
2023-01-28T00:52:30.434Z,7.20
2023-01-28T00:54:57.496Z,8.48
2023-01-28T00:57:24.391Z,7.05
2023-01-28T00:59:51.303Z,6.07
2023-01-28T01:02:18.308Z,6.65
2023-01-28T01:04:55.133Z,7.30
2023-01-28T01:07:32.433Z,6.30
2023-01-28T01:10:01.096Z,6.70
2023-01-28T01:12:28.978Z,7.90
2023-01-28T01:14:56.889Z,8.20
2023-01-28T01:17:23.889Z,7.28
2023-01-28T01:19:50.829Z,7.68
2023-01-28T01:22:17.600Z,7.65
2023-01-28T01:24:44.467Z,8.10
2023-01-28T01:27:11.395Z,7.72
2023-01-28T01:29:39.355Z,8.20
2023-01-28T01:32:06.359Z,7.20
2023-01-28T01:34:33.344Z,7.35
2023-01-28T01:37:00.145Z,6.60
2023-01-28T01:39:26.900Z,7.30
2023-01-28T01:41:53.776Z,7.18
2023-01-28T01:44:58.110Z,7.82
2023-01-28T01:47:42.084Z,7.40
2023-01-28T01:50:30.794Z,7.43
2023-01-28T01:53:03.101Z,7.38
2023-01-28T01:55:36.583Z,6.85
2023-01-28T01:58:09.885Z,5.72
2023-01-28T02:00:36.849Z,7.50
2023-01-28T02:03:04.398Z,7.75
2023-01-28T02:05:31.498Z,6.05
2023-01-28T02:08:20.003Z,7.32
2023-01-28T02:10:53.359Z,7.30
2023-01-28T02:13:23.349Z,7.95
2023-01-28T02:15:50.989Z,6.80
2023-01-28T02:18:17.938Z,7.18
2023-01-28T02:21:19.509Z,7.03
2023-01-28T02:24:01.698Z,7.80
2023-01-28T02:26:53.518Z,7.53
2023-01-28T02:29:28.691Z,7.10
2023-01-28T02:32:29.394Z,7.18
2023-01-28T02:35:19.218Z,7.18
2023-01-28T02:38:09.921Z,7.32
2023-01-28T02:41:02.415Z,7.63
2023-01-28T02:43:35.254Z,7.07
2023-01-28T02:46:39.791Z,7.10
2023-01-28T02:49:17.324Z,7.60
2023-01-28T02:52:48.492Z,6.80
2023-01-28T02:55:42.958Z,7.20
2023-01-28T02:58:47.465Z,7.70
2023-01-28T03:01:25.124Z,8.20
2023-01-28T03:04:07.690Z,7.10
2023-01-28T03:06:40.920Z,7.22
2023-01-28T03:09:24.800Z,7.65
2023-01-28T03:12:18.399Z,7.47
2023-01-28T03:15:12.609Z,6.72
2023-01-28T03:18:25.047Z,7.88
2023-01-28T03:21:21.193Z,7.75
2023-01-28T03:24:17.643Z,7.50
2023-01-28T03:27:15.183Z,7.20
2023-01-28T03:30:02.421Z,7.68
2023-01-28T03:32:50.739Z,7.65
2023-01-28T03:35:39.123Z,8.02
2023-01-28T03:38:18.243Z,8.95
2023-01-28T03:41:02.683Z,8.95
2023-01-28T03:43:32.306Z,8.35
2023-01-28T03:45:59.974Z,9.32
2023-01-28T03:48:28.287Z,8.13
2023-01-28T03:50:56.425Z,8.27
2023-01-28T03:53:23.372Z,8.32
2023-01-28T03:55:52.567Z,8.77
2023-01-28T03:58:20.936Z,8.63
2023-01-28T04:00:47.965Z,8.00
2023-01-28T04:03:17.538Z,8.13
2023-01-28T04:05:46.605Z,8.45
2023-01-28T04:08:14.122Z,7.90
2023-01-28T04:10:41.601Z,7.63
2023-01-28T04:13:08.463Z,7.38
2023-01-28T04:15:36.597Z,7.90
2023-01-28T04:18:03.621Z,7.20
2023-01-28T04:20:31.008Z,6.72
2023-01-28T04:22:57.840Z,7.35
2023-01-28T04:25:24.737Z,7.68
2023-01-28T04:27:51.867Z,7.45
2023-01-28T04:30:18.709Z,7.88
2023-01-28T04:32:47.485Z,7.45
2023-01-28T04:35:14.522Z,8.43
2023-01-28T04:37:42.726Z,7.97
2023-01-28T04:40:11.202Z,8.02
2023-01-28T04:42:38.478Z,7.35
2023-01-28T04:45:06.150Z,7.63
2023-01-28T04:47:33.018Z,7.75
2023-01-28T04:49:59.781Z,6.43
2023-01-28T04:52:26.526Z,8.38
2023-01-28T04:54:53.383Z,7.97
2023-01-28T04:57:20.391Z,7.65
2023-01-28T04:59:47.261Z,7.60
2023-01-28T05:02:14.081Z,7.32
2023-01-28T05:04:40.879Z,7.43
2023-01-28T05:07:07.733Z,7.65
2023-01-28T05:09:34.598Z,7.00
2023-01-28T05:12:01.451Z,7.05
2023-01-28T05:14:28.335Z,6.88
2023-01-28T05:16:55.079Z,6.95
2023-01-28T05:19:21.851Z,7.45
2023-01-28T05:21:48.648Z,7.97
2023-01-28T05:24:16.059Z,7.47
2023-01-28T05:26:42.927Z,7.05
2023-01-28T05:29:09.972Z,7.10
2023-01-28T05:31:36.885Z,6.72
2023-01-28T05:34:03.903Z,7.07
2023-01-28T05:36:30.799Z,6.80
2023-01-28T05:38:57.673Z,7.13
2023-01-28T05:41:24.461Z,7.63
2023-01-28T05:43:51.347Z,7.57
2023-01-28T05:46:18.232Z,7.90
2023-01-28T05:48:46.059Z,7.70
2023-01-28T05:51:12.897Z,7.35
2023-01-28T05:53:39.696Z,8.70
2023-01-28T05:56:06.797Z,8.10
2023-01-28T05:58:33.679Z,8.27
2023-01-28T06:01:00.569Z,7.93
2023-01-28T06:03:27.325Z,7.97
2023-01-28T06:05:54.206Z,8.25
2023-01-28T06:08:21.221Z,7.93
2023-01-28T06:10:48.123Z,8.48
2023-01-28T06:13:15.086Z,8.38
2023-01-28T06:15:41.906Z,8.65
2023-01-28T06:18:08.896Z,8.63
2023-01-28T06:20:35.729Z,8.32
2023-01-28T06:23:02.597Z,8.35
2023-01-28T06:25:29.388Z,8.32
2023-01-28T06:27:56.281Z,8.52
2023-01-28T06:30:23.386Z,8.70
2023-01-28T06:32:57.489Z,8.32
2023-01-28T06:35:24.699Z,8.02
2023-01-28T06:37:52.510Z,8.93
2023-01-28T06:40:20.247Z,8.93
2023-01-28T06:42:47.052Z,8.23
2023-01-28T06:45:14.071Z,8.30
2023-01-28T06:47:41.003Z,8.27
2023-01-28T06:50:08.476Z,8.70
2023-01-28T06:52:35.383Z,8.23
2023-01-28T06:55:02.232Z,8.10
2023-01-28T06:57:30.757Z,8.90
2023-01-28T06:59:57.609Z,8.73
2023-01-28T07:02:27.481Z,8.45
2023-01-28T07:04:54.668Z,8.95
2023-01-28T07:07:21.504Z,8.00
2023-01-28T07:09:48.284Z,8.82
2023-01-28T07:12:15.727Z,9.30
2023-01-28T07:14:42.556Z,8.70
2023-01-28T07:17:09.342Z,9.32
2023-01-28T07:19:36.335Z,9.75
2023-01-28T07:22:03.623Z,9.98
2023-01-28T07:24:31.243Z,10.25
2023-01-28T07:26:58.209Z,10.50
2023-01-28T07:29:24.982Z,10.32
2023-01-28T07:31:51.855Z,11.30
2023-01-28T07:34:18.727Z,10.38
2023-01-28T07:36:45.563Z,10.93
2023-01-28T07:39:12.399Z,10.57
2023-01-28T07:41:39.329Z,11.25
2023-01-28T07:44:06.213Z,11.38
2023-01-28T07:46:33.136Z,11.57
2023-01-28T07:49:00.340Z,11.13
2023-01-28T07:51:27.146Z,11.48
2023-01-28T07:53:54.231Z,12.05
2023-01-28T07:56:21.043Z,11.15
2023-01-28T07:58:50.697Z,12.30
2023-01-28T08:01:18.428Z,11.95
2023-01-28T08:03:45.367Z,11.45
2023-01-28T08:06:12.260Z,12.10
2023-01-28T08:08:39.102Z,11.73
2023-01-28T08:11:10.857Z,11.85
2023-01-28T08:13:37.908Z,12.18
2023-01-28T08:16:05.506Z,10.60
2023-01-28T08:18:32.413Z,11.32
2023-01-28T08:20:59.753Z,11.13
2023-01-28T08:23:27.372Z,10.70
2023-01-28T08:25:55.104Z,11.05
2023-01-28T08:28:22.185Z,10.80
2023-01-28T08:30:49.321Z,11.02
2023-01-28T08:33:17.971Z,11.40
2023-01-28T08:35:45.057Z,11.23
2023-01-28T08:38:15.338Z,11.35
2023-01-28T08:40:42.258Z,11.80
2023-01-28T08:43:09.716Z,11.35
2023-01-28T08:45:36.490Z,10.68
2023-01-28T08:48:08.022Z,10.00
2023-01-28T08:50:39.208Z,10.98
2023-01-28T08:53:10.303Z,9.93
2023-01-28T08:55:37.047Z,10.07
2023-01-28T08:58:06.221Z,10.88
2023-01-28T09:00:34.374Z,11.02
2023-01-28T09:03:03.212Z,10.20
2023-01-28T09:05:32.931Z,10.75
2023-01-28T09:08:08.321Z,10.85
2023-01-28T09:10:37.532Z,9.85
2023-01-28T09:13:15.420Z,10.10
2023-01-28T09:15:42.684Z,10.13
2023-01-28T09:18:09.828Z,10.07
2023-01-28T09:20:37.592Z,10.38
2023-01-28T09:23:04.954Z,9.95
2023-01-28T09:25:32.644Z,10.65
2023-01-28T09:27:59.503Z,10.88
2023-01-28T09:30:26.458Z,10.73
2023-01-28T09:32:54.539Z,10.18
2023-01-28T09:35:21.726Z,9.30
2023-01-28T09:37:48.902Z,9.90
2023-01-28T09:40:44.720Z,10.13
2023-01-28T09:43:44.702Z,10.00
2023-01-28T09:46:14.851Z,10.07
2023-01-28T09:48:45.195Z,10.02
2023-01-28T09:51:27.567Z,9.02
2023-01-28T09:53:57.001Z,10.10
2023-01-28T09:56:31.568Z,10.77
2023-01-28T09:59:20.235Z,12.90
2023-01-28T10:01:56.389Z,10.95
2023-01-28T10:04:23.237Z,10.82
2023-01-28T10:07:02.727Z,10.52
2023-01-28T10:09:45.605Z,11.27
2023-01-28T10:12:39.639Z,10.43
2023-01-28T10:15:24.508Z,10.93
2023-01-28T10:18:03.970Z,11.55
2023-01-28T10:20:45.127Z,13.10
2023-01-28T10:23:37.058Z,11.45
2023-01-28T10:26:11.677Z,11.63
2023-01-28T10:28:40.012Z,11.55
2023-01-28T10:31:14.361Z,11.88
2023-01-28T10:33:41.334Z,11.93
2023-01-28T10:36:10.097Z,13.07
2023-01-28T10:38:36.880Z,11.63
2023-01-28T10:41:05.876Z,11.98
2023-01-28T10:43:38.973Z,11.52
2023-01-28T10:46:33.725Z,11.18
2023-01-28T10:49:15.641Z,12.02
2023-01-28T10:51:43.632Z,11.40
2023-01-28T10:54:24.994Z,12.10
2023-01-28T10:57:02.611Z,12.10
2023-01-28T10:59:36.806Z,11.25
2023-01-28T11:02:24.575Z,12.50
2023-01-28T11:05:16.402Z,11.13
2023-01-28T11:07:44.386Z,13.68
2023-01-28T11:10:29.317Z,13.00
2023-01-28T11:12:57.783Z,13.73
2023-01-28T11:15:25.165Z,12.45
2023-01-28T11:17:57.793Z,13.65
2023-01-28T11:20:27.224Z,13.27
2023-01-28T11:22:55.456Z,13.02
2023-01-28T11:25:31.185Z,12.90
2023-01-28T11:27:59.547Z,13.70
2023-01-28T11:30:35.590Z,13.85
2023-01-28T11:33:11.031Z,13.13
2023-01-28T11:35:37.872Z,13.95
2023-01-28T11:38:21.282Z,13.65
2023-01-28T11:40:55.575Z,13.00
2023-01-28T11:43:25.265Z,13.95
2023-01-28T11:45:58.027Z,14.00
2023-01-28T11:48:27.662Z,13.75
2023-01-28T11:51:04.826Z,13.18
2023-01-28T11:53:46.686Z,13.27
2023-01-28T11:56:27.462Z,14.23
2023-01-28T11:58:54.250Z,14.23
2023-01-28T12:01:21.048Z,14.75
2023-01-28T12:04:25.236Z,16.15
2023-01-28T12:06:54.948Z,15.13
2023-01-28T12:09:21.726Z,15.57
2023-01-28T12:12:12.756Z,14.60
2023-01-28T12:14:58.344Z,32.42
2023-01-28T12:17:41.695Z,17.77
2023-01-28T12:20:27.282Z,16.35
2023-01-28T12:23:05.902Z,16.05
2023-01-28T12:26:14.635Z,16.73
2023-01-28T12:28:51.620Z,15.50
2023-01-28T12:31:36.839Z,16.67
2023-01-28T12:34:18.763Z,16.60
2023-01-28T12:36:45.550Z,16.42
2023-01-28T12:39:18.156Z,16.58
2023-01-28T12:41:51.716Z,17.35
2023-01-28T12:44:29.185Z,17.77
2023-01-28T12:47:05.578Z,16.63
2023-01-28T12:49:35.642Z,17.75
2023-01-28T12:52:11.111Z,18.38
2023-01-28T12:54:49.744Z,19.30
2023-01-28T12:57:28.190Z,17.23
2023-01-28T13:00:06.483Z,16.48
2023-01-28T13:02:40.698Z,16.77
2023-01-28T13:05:17.198Z,18.25
2023-01-28T13:08:03.366Z,17.08
2023-01-28T13:10:43.891Z,17.70
2023-01-28T13:13:17.024Z,18.50
2023-01-28T13:15:46.109Z,16.88
2023-01-28T13:18:32.356Z,16.58
2023-01-28T13:21:06.157Z,19.13
2023-01-28T13:23:40.824Z,17.20
2023-01-28T13:26:41.841Z,18.23
2023-01-28T13:29:19.614Z,17.67
2023-01-28T13:31:51.818Z,18.05
2023-01-28T13:34:37.997Z,18.20
2023-01-28T13:37:26.647Z,18.27
2023-01-28T13:40:00.174Z,19.60
2023-01-28T13:42:29.410Z,18.33
2023-01-28T13:45:09.166Z,19.35
2023-01-28T13:47:38.218Z,18.67
2023-01-28T13:50:13.941Z,19.60
2023-01-28T13:53:16.400Z,19.25
2023-01-28T13:58:33.857Z,17.65
2023-01-28T14:01:33.423Z,19.23
2023-01-28T14:04:24.637Z,19.02
2023-01-28T14:07:12.417Z,19.27
2023-01-28T14:10:06.968Z,20.50
2023-01-28T14:12:53.656Z,19.13
2023-01-28T14:15:40.514Z,19.65
2023-01-28T14:18:25.545Z,19.75
2023-01-28T14:20:54.597Z,19.67
2023-01-28T14:23:23.396Z,18.48
2023-01-28T14:25:53.234Z,20.35
2023-01-28T14:29:13.474Z,21.23
2023-01-28T14:31:40.949Z,21.05
2023-01-28T14:34:24.423Z,20.95
2023-01-28T14:36:58.225Z,20.30
2023-01-28T14:39:28.298Z,19.98
2023-01-28T14:41:58.307Z,19.75
2023-01-28T14:44:33.062Z,19.73
2023-01-28T14:47:31.665Z,19.73
2023-01-28T14:50:19.774Z,20.55
2023-01-28T14:53:13.740Z,20.05
2023-01-28T14:56:08.611Z,20.20
2023-01-28T14:58:53.809Z,20.25
2023-01-28T15:01:26.408Z,19.85
2023-01-28T15:03:53.632Z,20.42
2023-01-28T15:06:25.839Z,21.27
2023-01-28T15:08:53.905Z,20.77
2023-01-28T15:11:25.139Z,21.20
2023-01-28T15:13:56.994Z,20.35
2023-01-28T15:16:29.266Z,21.80
2023-01-28T15:18:57.998Z,21.60
2023-01-28T15:21:28.185Z,20.00
2023-01-28T15:24:00.431Z,20.27
2023-01-28T15:26:35.002Z,21.35
2023-01-28T15:29:01.882Z,19.58
2023-01-28T15:31:31.717Z,22.73
2023-01-28T15:34:13.771Z,20.75
2023-01-28T15:39:15.147Z,19.95
2023-01-28T15:41:47.367Z,18.92
2023-01-28T15:44:38.619Z,20.23
2023-01-28T15:47:16.591Z,18.33
2023-01-28T15:49:46.584Z,19.35
2023-01-28T15:52:13.581Z,19.58
2023-01-28T15:54:46.475Z,19.70
2023-01-28T15:57:28.169Z,19.73
2023-01-28T16:00:25.786Z,19.17
2023-01-28T16:02:55.241Z,18.40
2023-01-28T16:05:29.431Z,19.52
2023-01-28T16:07:57.630Z,18.52
2023-01-28T16:10:30.191Z,19.48
2023-01-28T16:13:16.174Z,19.98
2023-01-28T16:15:52.716Z,19.17
2023-01-28T16:18:48.242Z,18.30
2023-01-28T16:21:22.938Z,18.98
2023-01-28T16:24:04.756Z,20.83
2023-01-28T16:26:35.241Z,18.38
2023-01-28T16:29:15.415Z,18.48
2023-01-28T16:31:42.493Z,19.58
2023-01-28T16:34:11.195Z,18.88
2023-01-28T16:36:38.524Z,18.88
2023-01-28T16:39:05.878Z,20.38
2023-01-28T16:41:35.848Z,18.38
2023-01-28T16:44:05.943Z,16.77
2023-01-28T16:46:33.620Z,15.98
2023-01-28T16:49:00.553Z,16.73
2023-01-28T16:51:27.489Z,15.60
2023-01-28T16:53:55.051Z,14.23
2023-01-28T16:56:44.090Z,15.75
2023-01-28T16:59:12.256Z,14.95
2023-01-28T17:01:39.907Z,14.32
2023-01-28T17:04:12.208Z,14.68
2023-01-28T17:06:43.308Z,16.45
2023-01-28T17:09:12.215Z,15.00
2023-01-28T17:11:42.244Z,15.07
2023-01-28T17:14:10.751Z,16.25
2023-01-28T17:16:37.892Z,16.08
2023-01-28T17:19:05.008Z,18.65
2023-01-28T17:21:31.842Z,16.55
2023-01-28T17:24:00.876Z,17.35
2023-01-28T17:26:29.170Z,16.23
2023-01-28T17:28:56.524Z,15.57
2023-01-28T17:31:24.167Z,15.75
2023-01-28T17:33:54.887Z,16.45
2023-01-28T17:36:21.922Z,17.88
2023-01-28T17:38:48.749Z,18.58
2023-01-28T17:41:17.595Z,19.63
2023-01-28T17:43:49.689Z,19.48
2023-01-28T17:46:18.813Z,20.42
2023-01-28T17:48:45.943Z,20.67
2023-01-28T17:51:14.306Z,21.98
2023-01-28T17:53:45.729Z,22.23
2023-01-28T17:56:18.175Z,21.85
2023-01-28T17:58:49.838Z,21.30
2023-01-28T18:01:16.675Z,21.23
2023-01-28T18:03:43.538Z,20.27
2023-01-28T18:06:10.368Z,21.52
2023-01-28T18:08:37.510Z,21.85
2023-01-28T18:11:10.550Z,20.20
2023-01-28T18:13:38.387Z,20.50
2023-01-28T18:16:07.086Z,22.17
2023-01-28T18:18:34.857Z,20.52
2023-01-28T18:21:04.567Z,20.40
2023-01-28T18:23:32.702Z,20.70
2023-01-28T18:26:02.163Z,20.17
2023-01-28T18:28:29.304Z,20.63
2023-01-28T18:30:56.348Z,18.95
2023-01-28T18:33:23.871Z,19.73
2023-01-28T18:35:50.908Z,18.27
2023-01-28T18:38:18.615Z,19.23
2023-01-28T18:40:46.653Z,18.65
2023-01-28T18:43:14.731Z,19.77
2023-01-28T18:45:45.621Z,17.83
2023-01-28T18:48:12.497Z,18.43
2023-01-28T18:50:39.297Z,18.92
2023-01-28T18:53:06.296Z,18.17
2023-01-28T18:55:33.396Z,18.33
2023-01-28T18:58:00.502Z,18.77
2023-01-28T19:00:27.366Z,17.55
2023-01-28T19:02:54.249Z,17.27
2023-01-28T19:05:21.188Z,16.55
2023-01-28T19:07:48.142Z,16.90
2023-01-28T19:10:16.727Z,17.02
2023-01-28T19:12:43.758Z,16.48
2023-01-28T19:15:10.864Z,16.23
2023-01-28T19:17:37.922Z,16.45
2023-01-28T19:20:05.970Z,16.60
2023-01-28T19:22:33.242Z,15.98
2023-01-28T19:25:00.096Z,16.63
2023-01-28T19:27:27.188Z,16.83
2023-01-28T19:29:54.124Z,16.98
2023-01-28T19:32:21.149Z,16.25
2023-01-28T19:34:48.041Z,15.98
2023-01-28T19:37:15.494Z,15.40
2023-01-28T19:39:42.413Z,15.05
2023-01-28T19:42:09.418Z,15.63
2023-01-28T19:44:36.244Z,16.90
2023-01-28T19:47:03.611Z,18.27
2023-01-28T19:49:30.928Z,16.38
2023-01-28T19:51:58.566Z,15.88
2023-01-28T19:54:25.633Z,16.60
2023-01-28T19:56:52.396Z,15.30
2023-01-28T19:59:21.927Z,17.65
2023-01-28T20:01:48.809Z,15.25
2023-01-28T20:04:15.578Z,16.83
2023-01-28T20:06:42.407Z,16.70
2023-01-28T20:09:15.815Z,17.50
2023-01-28T20:11:42.759Z,17.02
2023-01-28T20:14:09.735Z,16.85
2023-01-28T20:16:37.565Z,16.08
2023-01-28T20:19:06.618Z,16.70
2023-01-28T20:21:35.006Z,15.73
2023-01-28T20:24:03.458Z,17.05
2023-01-28T20:26:33.063Z,16.52
2023-01-28T20:29:01.897Z,17.48
2023-01-28T20:31:28.884Z,16.92
2023-01-28T20:33:55.847Z,18.65
2023-01-28T20:36:22.723Z,18.10
2023-01-28T20:38:50.544Z,17.73
2023-01-28T20:41:22.764Z,19.60
2023-01-28T20:43:51.112Z,18.15
2023-01-28T20:46:24.587Z,19.23
2023-01-28T20:48:53.484Z,20.30
2023-01-28T20:51:22.920Z,17.85
2023-01-28T20:53:50.055Z,18.55
2023-01-28T20:56:19.530Z,19.48
2023-01-28T20:58:49.266Z,18.92
2023-01-28T21:01:21.491Z,19.23
2023-01-28T21:03:49.059Z,20.15
2023-01-28T21:06:15.932Z,19.73
2023-01-28T21:08:43.499Z,19.17
2023-01-28T21:11:10.764Z,18.83
2023-01-28T21:13:37.668Z,19.33
2023-01-28T21:16:05.572Z,19.27
2023-01-28T21:18:32.631Z,19.42
2023-01-28T21:21:05.109Z,19.00
2023-01-28T21:23:32.319Z,19.17
2023-01-28T21:26:04.552Z,20.48
2023-01-28T21:28:32.080Z,20.23
2023-01-28T21:31:14.013Z,18.80
2023-01-28T21:33:40.822Z,19.58
2023-01-28T21:36:13.596Z,19.77
2023-01-28T21:38:41.084Z,18.80
2023-01-28T21:41:08.902Z,19.73
2023-01-28T21:43:35.969Z,20.88
2023-01-28T21:46:03.091Z,19.00
2023-01-28T21:48:30.817Z,19.63
2023-01-28T21:51:23.342Z,19.02
2023-01-28T21:53:50.210Z,18.65
2023-01-28T21:56:17.199Z,19.67
2023-01-28T21:59:02.696Z,19.20
2023-01-28T22:01:29.538Z,18.10
2023-01-28T22:03:56.443Z,19.88
2023-01-28T22:06:23.286Z,21.15
2023-01-28T22:08:52.817Z,20.90
2023-01-28T22:11:20.241Z,20.23
2023-01-28T22:13:47.444Z,21.88
2023-01-28T22:16:14.331Z,20.52
2023-01-28T22:18:41.135Z,19.20
2023-01-28T22:21:10.849Z,19.90
2023-01-28T22:23:37.768Z,20.30
2023-01-28T22:26:04.858Z,21.98
2023-01-28T22:28:32.587Z,21.92
2023-01-28T22:31:08.994Z,21.98
2023-01-28T22:33:35.970Z,20.95
2023-01-28T22:36:06.319Z,20.77
2023-01-28T22:38:33.630Z,21.05
2023-01-28T22:41:06.435Z,22.08
2023-01-28T22:43:34.083Z,21.27
2023-01-28T22:46:02.081Z,21.55
2023-01-28T22:48:29.177Z,21.25
2023-01-28T22:51:01.615Z,18.77
2023-01-28T22:53:28.471Z,21.40
2023-01-28T22:55:56.152Z,19.58
2023-01-28T22:58:23.086Z,21.00
2023-01-28T23:00:50.149Z,18.73
2023-01-28T23:03:16.994Z,19.80
2023-01-28T23:05:43.857Z,20.08
2023-01-28T23:08:10.759Z,19.85
2023-01-28T23:10:53.033Z,17.90
2023-01-28T23:13:21.752Z,18.42
2023-01-28T23:16:08.631Z,19.15
2023-01-28T23:18:41.927Z,19.15
2023-01-28T23:21:47.023Z,18.92
2023-01-28T23:24:19.652Z,20.15
2023-01-28T23:27:00.543Z,20.73
2023-01-28T23:29:29.194Z,22.92
2023-01-28T23:32:01.157Z,21.05
2023-01-28T23:34:40.981Z,21.80
2023-01-28T23:37:10.273Z,22.73
2023-01-28T23:39:37.076Z,22.42
2023-01-28T23:42:21.002Z,20.73
2023-01-28T23:44:48.458Z,23.85
2023-01-28T23:47:15.681Z,25.05
2023-01-28T23:49:42.480Z,23.20
2023-01-28T23:52:10.034Z,21.17
2023-01-28T23:54:36.857Z,23.20
2023-01-28T23:57:04.580Z,23.20
2023-01-28T23:59:31.354Z,16.65
